NZWN/WLG METAR and TAF weather

Enter ICAO airport designator
Station Type Date Time Source
NZWN METAR 2021/04/18 03:30 UTC NOAA

NZWN 180330Z AUTO 36017KT 9999 NCD 17/07 Q1012 NOSIG


Station Type Date Time Source
NZWN Decoded METAR 2021/04/18 03:30 UTC NOAA

Wellington Airport, New Zealand (NZWN) 41-20S 174-48E 8M
Apr 17, 2021 - 11:30 PM EDT / 2021.04.18 0330 UTC
Wind: from the N (360 degrees) at 20 MPH (17 KT):0
Visibility: greater than 7 mile(s):0
Temperature: 62 F (17 C)
Dew Point: 44 F (7 C)
Relative Humidity: 51%
Pressure (altimeter): 29.88 in. Hg (1012 hPa)
ob: NZWN 180330Z AUTO 36017KT 9999 NCD 17/07 Q1012 NOSIG
cycle: 3

Station Type Date Time Source
NZWN TAF 2021/04/17 18:09 UTC NOAA

TAF NZWN 171706Z 1718/1818 03005KT 9999 SCT040
BECMG 1718/1720 35015KT
BECMG 1808/1810 34015G25KT

Example: see airport list